sensor_id;sensor_type;location;lat;lon;timestamp;P1;durP1;ratioP1;P2;durP2;ratioP2
11111;SDS011;5609;49.466;8.468;2022-12-07T00:01:40;8.00;;;7.20;;
11111;SDS011;5609;49.466;8.468;2022-12-07T00:04:09;7.97;;;7.17;;
11111;SDS011;5609;49.466;8.468;2022-12-07T00:06:37;8.30;;;7.27;;
11111;SDS011;5609;49.466;8.468;2022-12-07T00:09:06;8.50;;;7.10;;
11111;SDS011;5609;49.466;8.468;2022-12-07T00:11:34;9.43;;;7.43;;
11111;SDS011;5609;49.466;8.468;2022-12-07T00:14:04;7.63;;;6.50;;
11111;SDS011;5609;49.466;8.468;2022-12-07T00:16:32;7.90;;;7.10;;
11111;SDS011;5609;49.466;8.468;2022-12-07T00:18:59;7.33;;;6.63;;
11111;SDS011;5609;49.466;8.468;2022-12-07T00:21:27;8.00;;;7.20;;
11111;SDS011;5609;49.466;8.468;2022-12-07T00:23:55;8.07;;;6.70;;
11111;SDS011;5609;49.466;8.468;2022-12-07T00:26:24;8.47;;;7.20;;
11111;SDS011;5609;49.466;8.468;2022-12-07T00:28:52;8.40;;;7.13;;
11111;SDS011;5609;49.466;8.468;2022-12-07T00:31:21;7.70;;;6.90;;
11111;SDS011;5609;49.466;8.468;2022-12-07T00:33:48;9.57;;;7.17;;
11111;SDS011;5609;49.466;8.468;2022-12-07T00:36:16;8.37;;;7.43;;
11111;SDS011;5609;49.466;8.468;2022-12-07T00:38:43;9.13;;;7.30;;
11111;SDS011;5609;49.466;8.468;2022-12-07T00:41:11;9.07;;;7.20;;
11111;SDS011;5609;49.466;8.468;2022-12-07T00:43:40;7.67;;;6.83;;
11111;SDS011;5609;49.466;8.468;2022-12-07T00:46:07;7.67;;;6.87;;
11111;SDS011;5609;49.466;8.468;2022-12-07T00:48:34;8.53;;;7.63;;
11111;SDS011;5609;49.466;8.468;2022-12-07T00:51:01;6.97;;;6.30;;
11111;SDS011;5609;49.466;8.468;2022-12-07T00:53:28;7.70;;;6.90;;
11111;SDS011;5609;49.466;8.468;2022-12-07T00:55:56;8.87;;;7.20;;
11111;SDS011;5609;49.466;8.468;2022-12-07T00:58:23;8.10;;;7.13;;
11111;SDS011;5609;49.466;8.468;2022-12-07T01:00:51;7.60;;;6.80;;
11111;SDS011;5609;49.466;8.468;2022-12-07T01:03:18;7.90;;;7.10;;
11111;SDS011;5609;49.466;8.468;2022-12-07T01:05:49;7.93;;;6.87;;
11111;SDS011;5609;49.466;8.468;2022-12-07T01:08:16;8.07;;;6.97;;
11111;SDS011;5609;49.466;8.468;2022-12-07T01:10:44;8.57;;;7.47;;
11111;SDS011;5609;49.466;8.468;2022-12-07T01:13:11;7.87;;;7.07;;
11111;SDS011;5609;49.466;8.468;2022-12-07T01:15:39;9.83;;;7.17;;
11111;SDS011;5609;49.466;8.468;2022-12-07T01:18:07;9.30;;;7.50;;
11111;SDS011;5609;49.466;8.468;2022-12-07T01:20:34;10.03;;;7.43;;
11111;SDS011;5609;49.466;8.468;2022-12-07T01:23:01;9.10;;;7.37;;
11111;SDS011;5609;49.466;8.468;2022-12-07T01:25:29;11.47;;;7.70;;
11111;SDS011;5609;49.466;8.468;2022-12-07T01:27:56;9.50;;;7.67;;
11111;SDS011;5609;49.466;8.468;2022-12-07T01:30:23;9.07;;;6.73;;
11111;SDS011;5609;49.466;8.468;2022-12-07T01:32:50;8.50;;;6.60;;
11111;SDS011;5609;49.466;8.468;2022-12-07T01:35:18;9.03;;;6.93;;
11111;SDS011;5609;49.466;8.468;2022-12-07T01:37:45;7.60;;;6.77;;
11111;SDS011;5609;49.466;8.468;2022-12-07T01:40:13;7.60;;;6.53;;
11111;SDS011;5609;49.466;8.468;2022-12-07T01:42:40;7.53;;;6.77;;
11111;SDS011;5609;49.466;8.468;2022-12-07T01:47:53;8.00;;;7.20;;
11111;SDS011;5609;49.466;8.468;2022-12-07T01:50:24;7.37;;;6.67;;
11111;SDS011;5609;49.466;8.468;2022-12-07T01:52:52;8.03;;;6.60;;
11111;SDS011;5609;49.466;8.468;2022-12-07T01:55:20;8.77;;;6.90;;
11111;SDS011;5609;49.466;8.468;2022-12-07T01:57:48;7.50;;;6.70;;
11111;SDS011;5609;49.466;8.468;2022-12-07T02:00:16;7.47;;;6.67;;
11111;SDS011;5609;49.466;8.468;2022-12-07T02:02:44;7.30;;;6.47;;
11111;SDS011;5609;49.466;8.468;2022-12-07T02:05:12;7.80;;;6.90;;
11111;SDS011;5609;49.466;8.468;2022-12-07T02:07:41;7.60;;;6.47;;
11111;SDS011;5609;49.466;8.468;2022-12-07T02:10:12;8.90;;;6.77;;
11111;SDS011;5609;49.466;8.468;2022-12-07T02:12:39;9.40;;;6.67;;
11111;SDS011;5609;49.466;8.468;2022-12-07T02:15:07;6.67;;;5.97;;
11111;SDS011;5609;49.466;8.468;2022-12-07T02:17:36;8.40;;;6.87;;
11111;SDS011;5609;49.466;8.468;2022-12-07T02:20:21;7.43;;;6.63;;
11111;SDS011;5609;49.466;8.468;2022-12-07T02:23:04;9.83;;;6.70;;
11111;SDS011;5609;49.466;8.468;2022-12-07T02:25:40;7.30;;;6.60;;
11111;SDS011;5609;49.466;8.468;2022-12-07T02:28:12;7.73;;;6.37;;
11111;SDS011;5609;49.466;8.468;2022-12-07T02:30:44;7.40;;;5.93;;
11111;SDS011;5609;49.466;8.468;2022-12-07T02:33:14;7.87;;;6.80;;
11111;SDS011;5609;49.466;8.468;2022-12-07T02:35:43;7.67;;;6.30;;
11111;SDS011;5609;49.466;8.468;2022-12-07T02:38:14;7.73;;;6.40;;
11111;SDS011;5609;49.466;8.468;2022-12-07T02:40:43;7.10;;;6.40;;
11111;SDS011;5609;49.466;8.468;2022-12-07T02:43:12;7.00;;;6.23;;
11111;SDS011;5609;49.466;8.468;2022-12-07T02:45:41;7.10;;;6.37;;
11111;SDS011;5609;49.466;8.468;2022-12-07T02:48:10;9.27;;;6.80;;
11111;SDS011;5609;49.466;8.468;2022-12-07T02:50:38;8.13;;;6.73;;
11111;SDS011;5609;49.466;8.468;2022-12-07T02:53:05;8.00;;;6.83;;
11111;SDS011;5609;49.466;8.468;2022-12-07T02:55:33;8.57;;;7.00;;
11111;SDS011;5609;49.466;8.468;2022-12-07T02:58:11;9.00;;;6.73;;
11111;SDS011;5609;49.466;8.468;2022-12-07T03:00:44;8.87;;;6.63;;
11111;SDS011;5609;49.466;8.468;2022-12-07T03:03:16;8.13;;;7.33;;
11111;SDS011;5609;49.466;8.468;2022-12-07T03:05:53;8.90;;;6.67;;
11111;SDS011;5609;49.466;8.468;2022-12-07T03:08:28;8.10;;;6.67;;
11111;SDS011;5609;49.466;8.468;2022-12-07T03:10:58;8.07;;;6.60;;
11111;SDS011;5609;49.466;8.468;2022-12-07T03:13:26;6.87;;;5.80;;
11111;SDS011;5609;49.466;8.468;2022-12-07T03:15:56;6.97;;;5.90;;
11111;SDS011;5609;49.466;8.468;2022-12-07T03:18:28;7.57;;;5.67;;
11111;SDS011;5609;49.466;8.468;2022-12-07T03:20:56;6.30;;;5.70;;
11111;SDS011;5609;49.466;8.468;2022-12-07T03:23:25;7.73;;;6.07;;
11111;SDS011;5609;49.466;8.468;2022-12-07T03:25:54;6.40;;;5.70;;
11111;SDS011;5609;49.466;8.468;2022-12-07T03:28:22;7.13;;;6.37;;
11111;SDS011;5609;49.466;8.468;2022-12-07T03:30:52;7.93;;;6.10;;
11111;SDS011;5609;49.466;8.468;2022-12-07T03:33:21;6.97;;;6.20;;
11111;SDS011;5609;49.466;8.468;2022-12-07T03:35:51;6.43;;;5.57;;
11111;SDS011;5609;49.466;8.468;2022-12-07T03:38:20;6.83;;;6.10;;
11111;SDS011;5609;49.466;8.468;2022-12-07T03:40:49;7.00;;;6.10;;
11111;SDS011;5609;49.466;8.468;2022-12-07T03:43:17;7.13;;;6.13;;
11111;SDS011;5609;49.466;8.468;2022-12-07T03:45:47;7.57;;;6.33;;
11111;SDS011;5609;49.466;8.468;2022-12-07T03:48:20;6.80;;;6.10;;
11111;SDS011;5609;49.466;8.468;2022-12-07T03:50:50;6.83;;;6.10;;
11111;SDS011;5609;49.466;8.468;2022-12-07T03:53:20;7.40;;;6.50;;
11111;SDS011;5609;49.466;8.468;2022-12-07T03:55:49;7.80;;;6.40;;
11111;SDS011;5609;49.466;8.468;2022-12-07T03:58:17;8.27;;;5.97;;
11111;SDS011;5609;49.466;8.468;2022-12-07T04:00:45;7.37;;;6.17;;
11111;SDS011;5609;49.466;8.468;2022-12-07T04:03:13;6.70;;;5.90;;
11111;SDS011;5609;49.466;8.468;2022-12-07T04:05:40;6.53;;;5.83;;
11111;SDS011;5609;49.466;8.468;2022-12-07T04:08:08;7.17;;;6.00;;
11111;SDS011;5609;49.466;8.468;2022-12-07T04:10:38;6.90;;;6.03;;
11111;SDS011;5609;49.466;8.468;2022-12-07T04:13:05;7.23;;;6.20;;
11111;SDS011;5609;49.466;8.468;2022-12-07T04:15:32;7.27;;;6.10;;
11111;SDS011;5609;49.466;8.468;2022-12-07T04:18:00;6.63;;;5.13;;
11111;SDS011;5609;49.466;8.468;2022-12-07T04:20:28;6.40;;;5.80;;
11111;SDS011;5609;49.466;8.468;2022-12-07T04:22:55;6.43;;;5.67;;
11111;SDS011;5609;49.466;8.468;2022-12-07T04:25:23;7.20;;;5.60;;
11111;SDS011;5609;49.466;8.468;2022-12-07T04:27:51;6.27;;;5.20;;
11111;SDS011;5609;49.466;8.468;2022-12-07T04:30:18;6.43;;;5.83;;
11111;SDS011;5609;49.466;8.468;2022-12-07T04:32:47;6.10;;;5.50;;
11111;SDS011;5609;49.466;8.468;2022-12-07T04:35:15;5.77;;;5.17;;
11111;SDS011;5609;49.466;8.468;2022-12-07T04:37:42;6.53;;;5.83;;
11111;SDS011;5609;49.466;8.468;2022-12-07T04:40:09;6.60;;;5.90;;
11111;SDS011;5609;49.466;8.468;2022-12-07T04:42:40;6.23;;;5.63;;
11111;SDS011;5609;49.466;8.468;2022-12-07T04:45:09;7.80;;;6.30;;
11111;SDS011;5609;49.466;8.468;2022-12-07T04:47:36;7.13;;;6.40;;
11111;SDS011;5609;49.466;8.468;2022-12-07T04:50:04;6.60;;;5.93;;
11111;SDS011;5609;49.466;8.468;2022-12-07T04:52:31;7.40;;;6.10;;
11111;SDS011;5609;49.466;8.468;2022-12-07T04:54:58;7.33;;;6.30;;
11111;SDS011;5609;49.466;8.468;2022-12-07T04:57:25;8.23;;;7.17;;
11111;SDS011;5609;49.466;8.468;2022-12-07T04:59:54;7.63;;;6.83;;
11111;SDS011;5609;49.466;8.468;2022-12-07T05:02:23;7.70;;;6.20;;
11111;SDS011;5609;49.466;8.468;2022-12-07T05:04:50;7.20;;;6.50;;
11111;SDS011;5609;49.466;8.468;2022-12-07T05:07:17;7.63;;;6.53;;
11111;SDS011;5609;49.466;8.468;2022-12-07T05:09:45;8.10;;;6.63;;
11111;SDS011;5609;49.466;8.468;2022-12-07T05:12:12;8.60;;;6.73;;
11111;SDS011;5609;49.466;8.468;2022-12-07T05:14:39;7.70;;;6.90;;
11111;SDS011;5609;49.466;8.468;2022-12-07T05:17:07;7.13;;;6.43;;
11111;SDS011;5609;49.466;8.468;2022-12-07T05:19:36;7.73;;;6.80;;
11111;SDS011;5609;49.466;8.468;2022-12-07T05:22:04;8.43;;;7.20;;
11111;SDS011;5609;49.466;8.468;2022-12-07T05:24:31;7.80;;;6.73;;
11111;SDS011;5609;49.466;8.468;2022-12-07T05:27:00;8.20;;;6.70;;
11111;SDS011;5609;49.466;8.468;2022-12-07T05:29:27;7.80;;;6.90;;
11111;SDS011;5609;49.466;8.468;2022-12-07T05:31:54;7.57;;;6.77;;
11111;SDS011;5609;49.466;8.468;2022-12-07T05:34:23;7.50;;;6.70;;
11111;SDS011;5609;49.466;8.468;2022-12-07T05:36:50;7.30;;;6.60;;
11111;SDS011;5609;49.466;8.468;2022-12-07T05:39:17;7.60;;;6.80;;
11111;SDS011;5609;49.466;8.468;2022-12-07T05:41:44;7.07;;;6.20;;
11111;SDS011;5609;49.466;8.468;2022-12-07T05:44:29;7.20;;;6.23;;
11111;SDS011;5609;49.466;8.468;2022-12-07T05:46:56;7.47;;;6.37;;
11111;SDS011;5609;49.466;8.468;2022-12-07T05:49:24;8.07;;;6.63;;
11111;SDS011;5609;49.466;8.468;2022-12-07T05:51:52;7.27;;;6.53;;
11111;SDS011;5609;49.466;8.468;2022-12-07T05:54:19;8.07;;;6.60;;
11111;SDS011;5609;49.466;8.468;2022-12-07T05:56:46;8.10;;;6.83;;
11111;SDS011;5609;49.466;8.468;2022-12-07T05:59:13;6.43;;;5.83;;
11111;SDS011;5609;49.466;8.468;2022-12-07T06:01:48;7.63;;;6.50;;
11111;SDS011;5609;49.466;8.468;2022-12-07T06:04:16;7.37;;;6.23;;
11111;SDS011;5609;49.466;8.468;2022-12-07T06:06:45;7.93;;;6.57;;
11111;SDS011;5609;49.466;8.468;2022-12-07T06:09:12;8.17;;;6.67;;
11111;SDS011;5609;49.466;8.468;2022-12-07T06:11:40;7.13;;;6.40;;
11111;SDS011;5609;49.466;8.468;2022-12-07T06:14:25;7.43;;;6.73;;
11111;SDS011;5609;49.466;8.468;2022-12-07T06:16:52;7.73;;;6.73;;
11111;SDS011;5609;49.466;8.468;2022-12-07T06:19:19;8.13;;;7.20;;
11111;SDS011;5609;49.466;8.468;2022-12-07T06:21:47;6.90;;;6.20;;
11111;SDS011;5609;49.466;8.468;2022-12-07T06:24:15;7.30;;;6.60;;
11111;SDS011;5609;49.466;8.468;2022-12-07T06:26:42;6.97;;;6.20;;
11111;SDS011;5609;49.466;8.468;2022-12-07T06:29:10;7.40;;;6.33;;
11111;SDS011;5609;49.466;8.468;2022-12-07T06:31:37;7.20;;;6.50;;
11111;SDS011;5609;49.466;8.468;2022-12-07T06:34:05;8.40;;;7.10;;
11111;SDS011;5609;49.466;8.468;2022-12-07T06:36:32;7.37;;;6.60;;
11111;SDS011;5609;49.466;8.468;2022-12-07T06:39:01;8.00;;;6.63;;
11111;SDS011;5609;49.466;8.468;2022-12-07T06:41:28;8.63;;;7.27;;
11111;SDS011;5609;49.466;8.468;2022-12-07T06:43:55;8.13;;;7.33;;
11111;SDS011;5609;49.466;8.468;2022-12-07T06:46:22;8.30;;;7.10;;
11111;SDS011;5609;49.466;8.468;2022-12-07T06:48:49;8.17;;;7.33;;
11111;SDS011;5609;49.466;8.468;2022-12-07T06:51:16;7.77;;;6.97;;
11111;SDS011;5609;49.466;8.468;2022-12-07T06:53:44;7.57;;;6.87;;
11111;SDS011;5609;49.466;8.468;2022-12-07T06:56:12;9.10;;;7.27;;
11111;SDS011;5609;49.466;8.468;2022-12-07T06:58:39;8.40;;;7.60;;
11111;SDS011;5609;49.466;8.468;2022-12-07T07:01:08;8.33;;;7.43;;
11111;SDS011;5609;49.466;8.468;2022-12-07T07:03:36;10.20;;;7.30;;
11111;SDS011;5609;49.466;8.468;2022-12-07T07:06:03;7.97;;;7.13;;
11111;SDS011;5609;49.466;8.468;2022-12-07T07:08:30;8.60;;;7.67;;
11111;SDS011;5609;49.466;8.468;2022-12-07T07:10:57;8.20;;;7.33;;
11111;SDS011;5609;49.466;8.468;2022-12-07T07:13:26;7.63;;;6.83;;
11111;SDS011;5609;49.466;8.468;2022-12-07T07:15:53;8.03;;;7.23;;
11111;SDS011;5609;49.466;8.468;2022-12-07T07:18:20;9.27;;;7.37;;
11111;SDS011;5609;49.466;8.468;2022-12-07T07:20:48;8.37;;;7.57;;
11111;SDS011;5609;49.466;8.468;2022-12-07T07:23:15;8.20;;;7.13;;
11111;SDS011;5609;49.466;8.468;2022-12-07T07:25:42;9.40;;;7.40;;
11111;SDS011;5609;49.466;8.468;2022-12-07T07:28:09;8.00;;;7.20;;
11111;SDS011;5609;49.466;8.468;2022-12-07T07:30:37;8.90;;;8.00;;
11111;SDS011;5609;49.466;8.468;2022-12-07T07:33:05;8.10;;;7.10;;
11111;SDS011;5609;49.466;8.468;2022-12-07T07:35:33;8.53;;;7.63;;
11111;SDS011;5609;49.466;8.468;2022-12-07T07:38:00;8.60;;;7.33;;
11111;SDS011;5609;49.466;8.468;2022-12-07T07:40:28;8.60;;;7.50;;
11111;SDS011;5609;49.466;8.468;2022-12-07T07:42:55;10.30;;;7.70;;
11111;SDS011;5609;49.466;8.468;2022-12-07T07:45:23;9.87;;;8.00;;
11111;SDS011;5609;49.466;8.468;2022-12-07T07:47:52;8.70;;;7.80;;
11111;SDS011;5609;49.466;8.468;2022-12-07T07:50:20;8.20;;;7.20;;
11111;SDS011;5609;49.466;8.468;2022-12-07T07:52:47;8.13;;;7.07;;
11111;SDS011;5609;49.466;8.468;2022-12-07T07:55:14;8.80;;;7.90;;
11111;SDS011;5609;49.466;8.468;2022-12-07T07:57:42;9.20;;;7.70;;
11111;SDS011;5609;49.466;8.468;2022-12-07T08:00:10;8.37;;;7.27;;
11111;SDS011;5609;49.466;8.468;2022-12-07T08:02:37;7.87;;;7.07;;
11111;SDS011;5609;49.466;8.468;2022-12-07T08:05:07;9.03;;;7.70;;
11111;SDS011;5609;49.466;8.468;2022-12-07T08:07:34;9.07;;;7.63;;
11111;SDS011;5609;49.466;8.468;2022-12-07T08:10:01;8.07;;;7.27;;
11111;SDS011;5609;49.466;8.468;2022-12-07T08:12:28;7.83;;;7.03;;
11111;SDS011;5609;49.466;8.468;2022-12-07T08:14:55;8.93;;;7.63;;
11111;SDS011;5609;49.466;8.468;2022-12-07T08:17:22;8.43;;;7.50;;
11111;SDS011;5609;49.466;8.468;2022-12-07T08:19:50;8.53;;;7.63;;
11111;SDS011;5609;49.466;8.468;2022-12-07T08:22:18;9.10;;;7.80;;
11111;SDS011;5609;49.466;8.468;2022-12-07T08:24:45;8.03;;;7.23;;
11111;SDS011;5609;49.466;8.468;2022-12-07T08:27:12;8.40;;;7.00;;
11111;SDS011;5609;49.466;8.468;2022-12-07T08:29:39;8.00;;;7.03;;
11111;SDS011;5609;49.466;8.468;2022-12-07T08:32:07;7.53;;;6.70;;
11111;SDS011;5609;49.466;8.468;2022-12-07T08:34:34;9.47;;;7.03;;
11111;SDS011;5609;49.466;8.468;2022-12-07T08:37:01;7.90;;;7.10;;
11111;SDS011;5609;49.466;8.468;2022-12-07T08:39:30;8.53;;;7.63;;
11111;SDS011;5609;49.466;8.468;2022-12-07T08:41:57;9.40;;;7.77;;
11111;SDS011;5609;49.466;8.468;2022-12-07T08:44:24;11.23;;;7.83;;
11111;SDS011;5609;49.466;8.468;2022-12-07T08:46:52;9.17;;;7.70;;
11111;SDS011;5609;49.466;8.468;2022-12-07T08:49:21;9.60;;;7.47;;
11111;SDS011;5609;49.466;8.468;2022-12-07T08:51:49;8.20;;;7.30;;
11111;SDS011;5609;49.466;8.468;2022-12-07T08:54:17;9.33;;;7.90;;
11111;SDS011;5609;49.466;8.468;2022-12-07T08:56:46;8.27;;;7.20;;
11111;SDS011;5609;49.466;8.468;2022-12-07T08:59:14;8.23;;;7.37;;
11111;SDS011;5609;49.466;8.468;2022-12-07T09:01:42;8.40;;;7.60;;
11111;SDS011;5609;49.466;8.468;2022-12-07T09:04:09;8.63;;;7.17;;
11111;SDS011;5609;49.466;8.468;2022-12-07T09:06:37;10.03;;;8.17;;
11111;SDS011;5609;49.466;8.468;2022-12-07T09:09:04;8.73;;;7.57;;
11111;SDS011;5609;49.466;8.468;2022-12-07T09:11:31;8.83;;;7.73;;
11111;SDS011;5609;49.466;8.468;2022-12-07T09:14:00;8.07;;;7.27;;
11111;SDS011;5609;49.466;8.468;2022-12-07T09:16:27;9.47;;;7.50;;
11111;SDS011;5609;49.466;8.468;2022-12-07T09:18:54;9.27;;;7.60;;
11111;SDS011;5609;49.466;8.468;2022-12-07T09:21:21;9.13;;;7.70;;
11111;SDS011;5609;49.466;8.468;2022-12-07T09:23:48;8.17;;;7.30;;
11111;SDS011;5609;49.466;8.468;2022-12-07T09:26:15;11.53;;;8.20;;
11111;SDS011;5609;49.466;8.468;2022-12-07T09:28:42;8.63;;;7.77;;
11111;SDS011;5609;49.466;8.468;2022-12-07T09:31:11;8.60;;;7.70;;
11111;SDS011;5609;49.466;8.468;2022-12-07T09:33:38;8.50;;;6.97;;
11111;SDS011;5609;49.466;8.468;2022-12-07T09:36:06;9.07;;;7.60;;
11111;SDS011;5609;49.466;8.468;2022-12-07T09:38:34;8.37;;;7.47;;
11111;SDS011;5609;49.466;8.468;2022-12-07T09:41:03;8.77;;;7.60;;
11111;SDS011;5609;49.466;8.468;2022-12-07T09:43:31;12.33;;;7.90;;
11111;SDS011;5609;49.466;8.468;2022-12-07T09:45:58;9.13;;;7.33;;
11111;SDS011;5609;49.466;8.468;2022-12-07T09:48:28;8.60;;;7.10;;
11111;SDS011;5609;49.466;8.468;2022-12-07T09:50:57;9.00;;;7.63;;
11111;SDS011;5609;49.466;8.468;2022-12-07T09:53:25;8.73;;;7.63;;
11111;SDS011;5609;49.466;8.468;2022-12-07T09:55:53;8.20;;;7.17;;
11111;SDS011;5609;49.466;8.468;2022-12-07T09:58:21;8.70;;;7.47;;
11111;SDS011;5609;49.466;8.468;2022-12-07T10:00:50;8.27;;;7.43;;
11111;SDS011;5609;49.466;8.468;2022-12-07T10:03:17;9.40;;;7.47;;
11111;SDS011;5609;49.466;8.468;2022-12-07T10:05:46;8.07;;;7.27;;
11111;SDS011;5609;49.466;8.468;2022-12-07T10:08:14;9.03;;;7.97;;
11111;SDS011;5609;49.466;8.468;2022-12-07T10:10:42;8.57;;;7.57;;
11111;SDS011;5609;49.466;8.468;2022-12-07T10:13:11;9.13;;;8.23;;
11111;SDS011;5609;49.466;8.468;2022-12-07T10:15:42;9.37;;;8.37;;
11111;SDS011;5609;49.466;8.468;2022-12-07T10:18:20;9.23;;;8.30;;
11111;SDS011;5609;49.466;8.468;2022-12-07T10:20:50;9.67;;;8.50;;
11111;SDS011;5609;49.466;8.468;2022-12-07T10:23:26;10.17;;;7.73;;
11111;SDS011;5609;49.466;8.468;2022-12-07T10:25:53;9.23;;;8.30;;
11111;SDS011;5609;49.466;8.468;2022-12-07T10:28:21;11.77;;;8.10;;
11111;SDS011;5609;49.466;8.468;2022-12-07T10:30:49;10.43;;;8.77;;
11111;SDS011;5609;49.466;8.468;2022-12-07T10:33:28;10.27;;;7.97;;
11111;SDS011;5609;49.466;8.468;2022-12-07T10:35:57;12.63;;;8.40;;
11111;SDS011;5609;49.466;8.468;2022-12-07T10:38:24;9.30;;;7.67;;
11111;SDS011;5609;49.466;8.468;2022-12-07T10:41:02;8.33;;;7.03;;
11111;SDS011;5609;49.466;8.468;2022-12-07T10:43:29;8.87;;;7.30;;
11111;SDS011;5609;49.466;8.468;2022-12-07T10:48:43;10.20;;;7.80;;
11111;SDS011;5609;49.466;8.468;2022-12-07T10:51:14;6.87;;;5.93;;
11111;SDS011;5609;49.466;8.468;2022-12-07T10:53:48;7.60;;;6.10;;
11111;SDS011;5609;49.466;8.468;2022-12-07T10:56:35;7.33;;;5.83;;
11111;SDS011;5609;49.466;8.468;2022-12-07T10:59:12;7.30;;;5.80;;
11111;SDS011;5609;49.466;8.468;2022-12-07T11:01:43;8.80;;;6.23;;
11111;SDS011;5609;49.466;8.468;2022-12-07T11:04:15;6.10;;;5.33;;
11111;SDS011;5609;49.466;8.468;2022-12-07T11:06:47;6.63;;;5.30;;
11111;SDS011;5609;49.466;8.468;2022-12-07T11:09:24;6.13;;;5.53;;
11111;SDS011;5609;49.466;8.468;2022-12-07T11:11:56;8.20;;;5.90;;
11111;SDS011;5609;49.466;8.468;2022-12-07T11:14:27;7.33;;;5.80;;
11111;SDS011;5609;49.466;8.468;2022-12-07T11:16:55;7.37;;;5.70;;
11111;SDS011;5609;49.466;8.468;2022-12-07T11:19:29;7.97;;;5.43;;
11111;SDS011;5609;49.466;8.468;2022-12-07T11:22:00;6.57;;;5.50;;
11111;SDS011;5609;49.466;8.468;2022-12-07T11:24:31;6.03;;;5.43;;
11111;SDS011;5609;49.466;8.468;2022-12-07T11:27:11;7.43;;;5.20;;
11111;SDS011;5609;49.466;8.468;2022-12-07T11:29:50;6.27;;;5.20;;
11111;SDS011;5609;49.466;8.468;2022-12-07T11:32:22;6.97;;;5.20;;
11111;SDS011;5609;49.466;8.468;2022-12-07T11:34:55;5.43;;;4.93;;
11111;SDS011;5609;49.466;8.468;2022-12-07T11:37:28;6.37;;;5.27;;
11111;SDS011;5609;49.466;8.468;2022-12-07T11:39:59;6.90;;;5.53;;
11111;SDS011;5609;49.466;8.468;2022-12-07T11:42:29;7.00;;;5.40;;
11111;SDS011;5609;49.466;8.468;2022-12-07T11:44:59;6.40;;;5.63;;
11111;SDS011;5609;49.466;8.468;2022-12-07T11:47:28;5.70;;;4.70;;
11111;SDS011;5609;49.466;8.468;2022-12-07T11:49:58;5.83;;;4.97;;
11111;SDS011;5609;49.466;8.468;2022-12-07T11:52:30;7.03;;;4.73;;
11111;SDS011;5609;49.466;8.468;2022-12-07T11:54:59;6.20;;;5.00;;
11111;SDS011;5609;49.466;8.468;2022-12-07T11:57:28;5.30;;;4.80;;
11111;SDS011;5609;49.466;8.468;2022-12-07T11:59:59;8.17;;;4.70;;
11111;SDS011;5609;49.466;8.468;2022-12-07T12:02:28;5.43;;;4.57;;
11111;SDS011;5609;49.466;8.468;2022-12-07T12:05:01;6.30;;;4.80;;
11111;SDS011;5609;49.466;8.468;2022-12-07T12:07:31;5.87;;;4.93;;
11111;SDS011;5609;49.466;8.468;2022-12-07T12:09:59;6.27;;;4.70;;
11111;SDS011;5609;49.466;8.468;2022-12-07T12:12:36;6.17;;;5.10;;
11111;SDS011;5609;49.466;8.468;2022-12-07T12:15:13;7.63;;;5.77;;
11111;SDS011;5609;49.466;8.468;2022-12-07T12:17:48;7.13;;;4.93;;
11111;SDS011;5609;49.466;8.468;2022-12-07T12:20:19;6.57;;;4.70;;
11111;SDS011;5609;49.466;8.468;2022-12-07T12:22:50;5.07;;;4.40;;
11111;SDS011;5609;49.466;8.468;2022-12-07T12:25:21;4.87;;;4.17;;
11111;SDS011;5609;49.466;8.468;2022-12-07T12:27:50;5.23;;;4.43;;
11111;SDS011;5609;49.466;8.468;2022-12-07T12:30:26;5.47;;;4.50;;
11111;SDS011;5609;49.466;8.468;2022-12-07T12:33:00;5.57;;;4.70;;
11111;SDS011;5609;49.466;8.468;2022-12-07T12:35:30;5.30;;;4.40;;
11111;SDS011;5609;49.466;8.468;2022-12-07T12:41:07;4.87;;;4.37;;
11111;SDS011;5609;49.466;8.468;2022-12-07T12:47:38;5.00;;;4.20;;
11111;SDS011;5609;49.466;8.468;2022-12-07T12:50:21;7.77;;;4.70;;
11111;SDS011;5609;49.466;8.468;2022-12-07T12:52:57;4.73;;;4.23;;
11111;SDS011;5609;49.466;8.468;2022-12-07T12:55:45;7.07;;;4.73;;
11111;SDS011;5609;49.466;8.468;2022-12-07T13:01:45;4.80;;;3.60;;
11111;SDS011;5609;49.466;8.468;2022-12-07T13:04:31;5.60;;;3.90;;
11111;SDS011;5609;49.466;8.468;2022-12-07T13:07:08;5.60;;;3.47;;
11111;SDS011;5609;49.466;8.468;2022-12-07T13:09:38;5.23;;;4.03;;
11111;SDS011;5609;49.466;8.468;2022-12-07T13:12:12;7.73;;;3.50;;
11111;SDS011;5609;49.466;8.468;2022-12-07T13:14:53;4.70;;;3.23;;
11111;SDS011;5609;49.466;8.468;2022-12-07T13:23:19;7.87;;;3.27;;
11111;SDS011;5609;49.466;8.468;2022-12-07T13:28:40;4.97;;;3.00;;
11111;SDS011;5609;49.466;8.468;2022-12-07T13:31:11;6.60;;;3.10;;
11111;SDS011;5609;49.466;8.468;2022-12-07T13:33:50;4.97;;;3.17;;
11111;SDS011;5609;49.466;8.468;2022-12-07T13:36:21;3.73;;;3.00;;
11111;SDS011;5609;49.466;8.468;2022-12-07T13:38:53;5.27;;;3.20;;
11111;SDS011;5609;49.466;8.468;2022-12-07T13:41:22;4.80;;;3.10;;
11111;SDS011;5609;49.466;8.468;2022-12-07T13:43:51;3.87;;;3.10;;
11111;SDS011;5609;49.466;8.468;2022-12-07T13:46:22;4.17;;;2.90;;
11111;SDS011;5609;49.466;8.468;2022-12-07T13:48:58;4.30;;;2.77;;
11111;SDS011;5609;49.466;8.468;2022-12-07T13:51:25;4.10;;;2.77;;
11111;SDS011;5609;49.466;8.468;2022-12-07T13:53:54;3.93;;;2.93;;
11111;SDS011;5609;49.466;8.468;2022-12-07T13:56:26;3.37;;;3.07;;
11111;SDS011;5609;49.466;8.468;2022-12-07T13:58:57;4.17;;;3.20;;
11111;SDS011;5609;49.466;8.468;2022-12-07T14:01:24;3.57;;;3.07;;
11111;SDS011;5609;49.466;8.468;2022-12-07T14:03:52;3.50;;;2.93;;
11111;SDS011;5609;49.466;8.468;2022-12-07T14:06:22;3.43;;;2.90;;
11111;SDS011;5609;49.466;8.468;2022-12-07T14:09:05;5.70;;;3.43;;
11111;SDS011;5609;49.466;8.468;2022-12-07T14:11:42;4.87;;;3.70;;
11111;SDS011;5609;49.466;8.468;2022-12-07T14:14:10;4.13;;;3.50;;
11111;SDS011;5609;49.466;8.468;2022-12-07T14:16:42;4.33;;;3.67;;
11111;SDS011;5609;49.466;8.468;2022-12-07T14:22:19;4.63;;;3.70;;
11111;SDS011;5609;49.466;8.468;2022-12-07T14:25:14;6.90;;;3.77;;
11111;SDS011;5609;49.466;8.468;2022-12-07T14:27:54;4.27;;;3.40;;
11111;SDS011;5609;49.466;8.468;2022-12-07T14:30:23;5.37;;;3.63;;
11111;SDS011;5609;49.466;8.468;2022-12-07T14:32:53;4.30;;;3.90;;
11111;SDS011;5609;49.466;8.468;2022-12-07T14:35:23;5.90;;;3.90;;
11111;SDS011;5609;49.466;8.468;2022-12-07T14:37:51;4.67;;;3.53;;
11111;SDS011;5609;49.466;8.468;2022-12-07T14:40:19;4.77;;;3.50;;
11111;SDS011;5609;49.466;8.468;2022-12-07T14:42:48;3.97;;;3.10;;
11111;SDS011;5609;49.466;8.468;2022-12-07T14:45:18;4.43;;;2.83;;
11111;SDS011;5609;49.466;8.468;2022-12-07T14:47:46;3.60;;;2.93;;
11111;SDS011;5609;49.466;8.468;2022-12-07T14:50:14;4.67;;;2.93;;
11111;SDS011;5609;49.466;8.468;2022-12-07T14:52:43;4.07;;;2.70;;
11111;SDS011;5609;49.466;8.468;2022-12-07T14:55:16;4.00;;;2.83;;
11111;SDS011;5609;49.466;8.468;2022-12-07T14:57:48;3.80;;;2.70;;
11111;SDS011;5609;49.466;8.468;2022-12-07T15:00:15;3.00;;;2.50;;
11111;SDS011;5609;49.466;8.468;2022-12-07T15:02:45;3.70;;;2.67;;
11111;SDS011;5609;49.466;8.468;2022-12-07T15:05:13;3.60;;;2.67;;
11111;SDS011;5609;49.466;8.468;2022-12-07T15:07:40;4.20;;;2.93;;
11111;SDS011;5609;49.466;8.468;2022-12-07T15:10:11;3.87;;;2.83;;
11111;SDS011;5609;49.466;8.468;2022-12-07T15:12:44;3.27;;;2.70;;
11111;SDS011;5609;49.466;8.468;2022-12-07T15:15:11;4.37;;;2.70;;
11111;SDS011;5609;49.466;8.468;2022-12-07T15:17:38;3.33;;;2.73;;
11111;SDS011;5609;49.466;8.468;2022-12-07T15:20:05;4.43;;;3.00;;
11111;SDS011;5609;49.466;8.468;2022-12-07T15:22:37;4.47;;;2.83;;
11111;SDS011;5609;49.466;8.468;2022-12-07T15:25:04;3.20;;;2.60;;
11111;SDS011;5609;49.466;8.468;2022-12-07T15:27:32;3.33;;;2.83;;
11111;SDS011;5609;49.466;8.468;2022-12-07T15:29:59;3.37;;;2.60;;
11111;SDS011;5609;49.466;8.468;2022-12-07T15:32:26;5.07;;;2.90;;
11111;SDS011;5609;49.466;8.468;2022-12-07T15:34:53;4.53;;;2.87;;
11111;SDS011;5609;49.466;8.468;2022-12-07T15:37:19;2.83;;;2.63;;
11111;SDS011;5609;49.466;8.468;2022-12-07T15:39:46;6.13;;;3.27;;
11111;SDS011;5609;49.466;8.468;2022-12-07T15:42:13;4.53;;;3.00;;